Time;durP1;ratioP1;P1;durP2;ratioP2;P2;SDS_P1;SDS_P2;PMS_P1;PMS_P2;Temp;Humidity;BMP_temperature;BMP_pressure;BME280_temperature;BME280_humidity;BME280_pressure;Samples;Min_cycle;Max_cycle;Signal;HPM_P1;HPM_P2
2024/04/10 00:00:12;;;;;;;;;;;;;;;18.66;46.01;100079.31;11032137;26;842;-72
2024/04/10 00:05:08;;;;;;;;;;;;;;;18.64;46.10;100073.25;11031178;26;921;-72
2024/04/10 00:10:04;;;;;;;;;;;;;;;18.62;45.96;100078.56;11031059;26;1825;-72
2024/04/10 00:15:00;;;;;;;;;;;;;;;18.61;46.22;100082.16;11030033;26;1232;-72
2024/04/10 00:19:56;;;;;;;;;;;;;;;18.59;46.20;100089.25;11030899;26;827;-72
2024/04/10 00:24:52;;;;;;;;;;;;;;;18.58;45.99;100098.13;11030803;26;915;-72
2024/04/10 00:29:50;;;;;;;;;;;;;;;18.56;46.00;100108.72;11029809;26;1868;-72
2024/04/10 00:34:46;;;;;;;;;;;;;;;18.55;46.04;100114.94;11030418;26;982;-72
2024/04/10 00:39:42;;;;;;;;;;;;;;;18.54;46.10;100115.00;11029685;26;1034;-72
2024/04/10 00:44:38;;;;;;;;;;;;;;;18.52;46.14;100120.34;11030317;26;877;-72
2024/04/10 00:49:33;;;;;;;;;;;;;;;18.51;46.06;100123.03;11029971;26;1851;-72
2024/04/10 00:54:29;;;;;;;;;;;;;;;18.47;46.08;100127.59;11029872;26;911;-72
2024/04/10 00:59:25;;;;;;;;;;;;;;;18.48;45.77;100131.94;11028461;26;843;-72
2024/04/10 01:04:21;;;;;;;;;;;;;;;18.46;46.30;100125.84;11029650;26;915;-72
2024/04/10 01:09:17;;;;;;;;;;;;;;;18.45;46.03;100140.00;11028640;26;1821;-72
2024/04/10 01:14:13;;;;;;;;;;;;;;;18.43;46.02;100133.91;11029211;26;1101;-72
2024/04/10 01:19:09;;;;;;;;;;;;;;;18.43;46.18;100159.44;11029171;26;852;-72
2024/04/10 01:24:05;;;;;;;;;;;;;;;18.42;46.11;100163.00;11029589;26;854;-73
2024/04/10 01:29:00;;;;;;;;;;;;;;;18.39;46.26;100162.22;11029784;26;1832;-72
2024/04/10 01:33:56;;;;;;;;;;;;;;;18.39;46.56;100166.59;11028685;26;896;-72
2024/04/10 01:38:52;;;;;;;;;;;;;;;18.36;46.23;100170.22;11029218;26;974;-72
2024/04/10 01:43:48;;;;;;;;;;;;;;;18.35;46.30;100172.94;11028714;26;873;-72
2024/04/10 01:48:44;;;;;;;;;;;;;;;18.34;46.14;100171.22;11028201;26;1832;-72
2024/04/10 01:53:40;;;;;;;;;;;;;;;18.32;46.18;100173.91;11028871;26;879;-72
2024/04/10 01:58:36;;;;;;;;;;;;;;;18.31;46.03;100182.75;11028037;26;953;-72
2024/04/10 02:03:32;;;;;;;;;;;;;;;18.31;45.97;100203.00;11027879;26;1129;-72
2024/04/10 02:08:27;;;;;;;;;;;;;;;18.29;46.09;100212.78;11027037;26;1825;-72
2024/04/10 02:13:23;;;;;;;;;;;;;;;18.27;45.86;100204.03;11027130;26;1071;-72
2024/04/10 02:18:19;;;;;;;;;;;;;;;18.26;46.29;100216.38;11027442;26;946;-73
2024/04/10 02:23:15;;;;;;;;;;;;;;;18.25;45.79;100213.78;11027908;26;943;-72
2024/04/10 02:28:11;;;;;;;;;;;;;;;18.23;46.50;100221.75;11027761;26;1862;-72
2024/04/10 02:34:21;;;;;;;;;;;;;;;18.22;46.42;100229.75;11288273;25;1730;-72
2024/04/10 02:39:17;;;;;;;;;;;;;;;18.21;46.23;100241.19;11287607;25;820;-72
2024/04/10 02:44:13;;;;;;;;;;;;;;;18.19;46.39;100243.91;11287388;25;839;-72
2024/04/10 02:49:09;;;;;;;;;;;;;;;18.17;46.03;100249.22;11287982;25;886;-72
2024/04/10 02:54:05;;;;;;;;;;;;;;;18.17;46.07;100267.69;11287986;25;1829;-72
2024/04/10 02:59:01;;;;;;;;;;;;;;;18.15;46.13;100274.81;11287014;25;807;-72
2024/04/10 03:03:57;;;;;;;;;;;;;;;18.13;45.81;100276.66;11286816;25;879;-72
2024/04/10 03:08:52;;;;;;;;;;;;;;;18.12;46.15;100277.56;11287432;25;890;-72
2024/04/10 03:13:48;;;;;;;;;;;;;;;18.11;46.01;100283.75;11286452;25;1825;-72
2024/04/10 03:18:44;;;;;;;;;;;;;;;18.11;46.42;100296.09;11286377;25;820;-72
2024/04/10 03:23:40;;;;;;;;;;;;;;;18.09;46.38;100306.69;11287013;25;850;-72
2024/04/10 03:28:36;;;;;;;;;;;;;;;18.08;46.31;100318.16;11286116;25;922;-72
2024/04/10 03:33:32;;;;;;;;;;;;;;;18.08;46.36;100319.97;11286326;25;1911;-72
2024/04/10 03:38:28;;;;;;;;;;;;;;;18.05;46.58;100326.19;11287174;25;916;-72
2024/04/10 03:43:24;;;;;;;;;;;;;;;18.05;46.24;100349.06;11269044;25;839;-72
2024/04/10 03:48:19;;;;;;;;;;;;;;;18.04;46.60;100357.91;11253592;26;1058;-72
2024/04/10 03:53:15;;;;;;;;;;;;;;;18.02;46.36;100365.00;11253520;25;1838;-72
2024/04/10 03:58:11;;;;;;;;;;;;;;;18.01;46.59;100376.47;11253333;26;878;-72
2024/04/10 04:03:07;;;;;;;;;;;;;;;18.01;46.07;100372.06;11253291;25;921;-71
2024/04/10 04:08:03;;;;;;;;;;;;;;;18.01;46.10;100381.75;11253113;25;824;-72
2024/04/10 04:12:59;;;;;;;;;;;;;;;18.01;45.89;100392.28;11253565;25;1822;-71
2024/04/10 04:17:55;;;;;;;;;;;;;;;18.03;45.95;100404.53;11252817;26;926;-72
2024/04/10 04:22:51;;;;;;;;;;;;;;;18.03;46.53;100416.84;11252705;25;1064;-72
2024/04/10 04:27:47;;;;;;;;;;;;;;;18.06;46.16;100430.78;11252457;26;887;-72
2024/04/10 04:32:43;;;;;;;;;;;;;;;18.09;45.98;100445.66;11252175;25;1838;-72
2024/04/10 04:37:38;;;;;;;;;;;;;;;18.10;46.37;100456.16;11251607;26;1021;-72
2024/04/10 04:42:34;;;;;;;;;;;;;;;18.13;45.98;100469.25;11251445;26;808;-72
2024/04/10 04:47:30;;;;;;;;;;;;;;;18.14;46.19;100484.16;11251971;26;899;-72
2024/04/10 04:52:26;;;;;;;;;;;;;;;18.16;46.09;100484.97;11250970;26;1829;-72
2024/04/10 04:57:22;;;;;;;;;;;;;;;18.19;46.13;100502.50;11250129;25;926;-72
2024/04/10 05:02:18;;;;;;;;;;;;;;;18.21;46.62;100515.59;11250805;25;1057;-71
2024/04/10 05:07:14;;;;;;;;;;;;;;;18.23;46.02;100512.00;11250704;25;873;-71
2024/04/10 05:12:10;;;;;;;;;;;;;;;18.26;46.27;100503.13;11250510;25;1849;-72
2024/04/10 05:17:06;;;;;;;;;;;;;;;18.26;46.43;100517.22;11250455;26;962;-75
2024/04/10 05:22:01;;;;;;;;;;;;;;;18.28;46.50;100527.69;11250257;26;891;-71
2024/04/10 05:26:57;;;;;;;;;;;;;;;18.31;46.13;100524.94;11250161;25;890;-71
2024/04/10 05:31:53;;;;;;;;;;;;;;;18.32;46.84;100545.16;11249979;25;1841;-71
2024/04/10 05:36:49;;;;;;;;;;;;;;;18.33;46.69;100550.38;11250517;26;989;-71
2024/04/10 05:41:45;;;;;;;;;;;;;;;18.34;46.54;100564.47;11250269;26;933;-71
2024/04/10 05:46:41;;;;;;;;;;;;;;;18.36;46.74;100584.59;11250231;25;828;-71
2024/04/10 05:51:37;;;;;;;;;;;;;;;18.38;46.62;100592.47;11250703;25;1836;-71
2024/04/10 05:56:33;;;;;;;;;;;;;;;18.38;46.52;100589.84;11250602;26;840;-71
2024/04/10 06:01:29;;;;;;;;;;;;;;;18.39;46.71;100599.47;11246917;26;1253;-72
2024/04/10 06:06:25;;;;;;;;;;;;;;;18.39;46.51;100605.63;11248287;26;986;-72
2024/04/10 06:11:22;;;;;;;;;;;;;;;18.40;46.94;100622.31;11249248;26;1861;-71
2024/04/10 06:16:19;;;;;;;;;;;;;;;18.38;46.46;100621.50;11248547;26;875;-71
2024/04/10 06:21:15;;;;;;;;;;;;;;;18.39;46.78;100631.13;11249071;25;936;-71
2024/04/10 06:26:10;;;;;;;;;;;;;;;18.38;46.68;100632.06;11248159;25;895;-72
2024/04/10 06:31:08;;;;;;;;;;;;;;;18.37;46.40;100643.53;11248320;25;1848;-72
2024/04/10 06:36:04;;;;;;;;;;;;;;;18.36;46.61;100645.28;11247760;26;866;-74
2024/04/10 06:41:00;;;;;;;;;;;;;;;18.36;46.60;100657.63;11248275;25;1344;-72
2024/04/10 06:45:56;;;;;;;;;;;;;;;18.37;46.87;100664.66;11247434;25;899;-72
2024/04/10 06:50:52;;;;;;;;;;;;;;;18.37;46.90;100675.22;11247834;25;1849;-72
2024/04/10 06:55:48;;;;;;;;;;;;;;;18.37;46.80;100684.00;11247128;25;877;-72
2024/04/10 07:00:44;;;;;;;;;;;;;;;18.38;46.41;100690.13;11246902;25;884;-73
2024/04/10 07:05:43;;;;;;;;;;;;;;;18.37;46.61;100696.34;11246737;25;839;-72
2024/04/10 07:10:39;;;;;;;;;;;;;;;18.38;46.70;100688.34;11246432;25;1826;-68
2024/04/10 07:15:35;;;;;;;;;;;;;;;18.38;46.40;100709.47;11246469;25;874;-69
2024/04/10 07:20:31;;;;;;;;;;;;;;;18.39;46.60;100712.97;11253436;26;806;-68
2024/04/10 07:25:27;;;;;;;;;;;;;;;18.38;46.67;100720.03;11253741;25;1007;-68
2024/04/10 07:30:23;;;;;;;;;;;;;;;18.39;46.74;100727.06;11253599;25;1848;-71
2024/04/10 07:35:19;;;;;;;;;;;;;;;18.39;46.07;100731.44;11254189;26;912;-68
2024/04/10 07:40:15;;;;;;;;;;;;;;;18.40;46.52;100739.34;11253916;26;867;-69
2024/04/10 07:45:11;;;;;;;;;;;;;;;18.42;46.66;100748.97;11253807;25;962;-68
2024/04/10 07:50:07;;;;;;;;;;;;;;;18.40;46.66;100754.31;11254367;25;1899;-69
2024/04/10 07:55:03;;;;;;;;;;;;;;;18.39;46.52;100752.56;11253567;26;894;-71
2024/04/10 07:59:59;;;;;;;;;;;;;;;18.41;46.40;100763.94;11253474;26;885;-70
2024/04/10 08:04:55;;;;;;;;;;;;;;;18.41;46.29;100774.50;11253234;26;909;-71
2024/04/10 08:09:50;;;;;;;;;;;;;;;18.42;46.10;100784.19;11253644;26;1818;-71
2024/04/10 08:14:46;;;;;;;;;;;;;;;18.43;45.85;100790.31;11252961;25;844;-71
2024/04/10 08:19:42;;;;;;;;;;;;;;;18.42;46.28;100797.38;11253514;26;902;-71
2024/04/10 08:24:38;;;;;;;;;;;;;;;18.42;46.42;100797.38;11252653;26;955;-71
2024/04/10 08:29:34;;;;;;;;;;;;;;;18.45;46.11;100806.97;11252310;26;1837;-70
2024/04/10 08:34:30;;;;;;;;;;;;;;;18.47;46.40;100813.06;11252700;26;763;-71
2024/04/10 08:39:26;;;;;;;;;;;;;;;18.46;46.34;100821.91;11251532;26;875;-71
2024/04/10 08:44:21;;;;;;;;;;;;;;;18.50;46.32;100821.78;11251499;25;947;-71
2024/04/10 08:49:17;;;;;;;;;;;;;;;18.51;46.13;100830.56;11251315;26;1061;-71
2024/04/10 08:54:13;;;;;;;;;;;;;;;18.50;46.22;100834.97;11251069;26;1845;-71
2024/04/10 08:59:09;;;;;;;;;;;;;;;18.51;45.96;100836.69;11250981;26;1042;-71
2024/04/10 09:04:08;;;;;;;;;;;;;;;18.53;46.31;100839.28;11251488;25;934;-71
2024/04/10 09:09:07;;;;;;;;;;;;;;;18.52;46.16;100850.75;11250659;25;885;-71
2024/04/10 09:14:03;;;;;;;;;;;;;;;18.51;46.07;100851.66;11250478;25;1826;-71
2024/04/10 09:18:59;;;;;;;;;;;;;;;18.52;46.42;100853.38;11250409;25;880;-71
2024/04/10 09:23:54;;;;;;;;;;;;;;;18.51;46.14;100857.81;11251008;25;878;-71
2024/04/10 09:28:50;;;;;;;;;;;;;;;18.54;46.31;100851.56;11250809;26;946;-71
2024/04/10 09:33:46;;;;;;;;;;;;;;;18.55;46.09;100854.19;11250806;26;1837;-71
2024/04/10 09:38:42;;;;;;;;;;;;;;;18.57;46.21;100857.63;11250539;26;986;-71
2024/04/10 09:43:38;;;;;;;;;;;;;;;18.57;46.17;100857.63;11249231;26;828;-71
2024/04/10 09:48:34;;;;;;;;;;;;;;;18.59;46.48;100862.88;11250941;25;815;-71
2024/04/10 09:53:30;;;;;;;;;;;;;;;18.60;46.27;100868.13;11250649;26;1818;-71
2024/04/10 09:58:26;;;;;;;;;;;;;;;18.61;46.25;100863.69;11250549;26;950;-71
2024/04/10 10:03:22;;;;;;;;;;;;;;;18.61;46.37;100868.97;11249766;25;925;-70
2024/04/10 10:08:18;;;;;;;;;;;;;;;18.62;46.10;100887.41;11250252;26;906;-71
2024/04/10 10:13:14;;;;;;;;;;;;;;;18.63;46.38;100888.28;11249250;26;1839;-71
2024/04/10 10:18:10;;;;;;;;;;;;;;;18.64;46.37;100894.44;11249938;26;886;-71
2024/04/10 10:23:06;;;;;;;;;;;;;;;18.64;46.05;100889.16;11248981;26;872;-71
2024/04/10 10:28:01;;;;;;;;;;;;;;;18.65;46.03;100890.88;11248914;25;1335;-71
2024/04/10 10:32:57;;;;;;;;;;;;;;;18.66;46.45;100903.19;11247753;26;1851;-71
2024/04/10 10:37:53;;;;;;;;;;;;;;;18.66;46.39;100903.19;11248544;26;736;-71
2024/04/10 10:42:49;;;;;;;;;;;;;;;18.66;46.33;100900.53;11247680;26;909;-71
2024/04/10 10:47:45;;;;;;;;;;;;;;;18.67;45.89;100904.91;11247624;26;846;-71
2024/04/10 10:52:41;;;;;;;;;;;;;;;18.67;46.51;100905.75;11251371;26;1833;-71
2024/04/10 10:57:37;;;;;;;;;;;;;;;18.67;46.30;100907.53;11254590;26;847;-72
2024/04/10 11:02:32;;;;;;;;;;;;;;;18.66;46.09;100919.91;11255146;25;878;-72
2024/04/10 11:07:28;;;;;;;;;;;;;;;18.66;46.42;100919.03;11254326;26;886;-71
2024/04/10 11:12:24;;;;;;;;;;;;;;;18.67;46.57;100915.47;11254144;26;1849;-71
2024/04/10 11:17:21;;;;;;;;;;;;;;;18.67;46.03;100910.19;11254048;26;930;-71
2024/04/10 11:22:19;;;;;;;;;;;;;;;18.68;46.58;100917.19;11254540;26;1568;-71
2024/04/10 11:27:16;;;;;;;;;;;;;;;18.69;46.27;100913.66;11254660;25;992;-71
2024/04/10 11:32:12;;;;;;;;;;;;;;;18.70;46.43;100918.88;11254355;25;1830;-72
2024/04/10 11:37:08;;;;;;;;;;;;;;;18.71;46.57;100907.44;11254158;26;859;-71
2024/04/10 11:42:04;;;;;;;;;;;;;;;18.73;46.24;100910.00;11253941;26;855;-71
2024/04/10 11:46:59;;;;;;;;;;;;;;;18.74;46.30;100914.41;11254445;25;949;-71
2024/04/10 11:51:55;;;;;;;;;;;;;;;18.73;46.25;100905.63;11253911;25;1841;-77
2024/04/10 11:56:51;;;;;;;;;;;;;;;18.74;46.00;100911.75;11254156;26;902;-71
2024/04/10 12:01:48;;;;;;;;;;;;;;;18.75;46.31;100902.94;11253254;25;871;-72
2024/04/10 12:06:44;;;;;;;;;;;;;;;18.74;46.44;100907.34;11252470;25;860;-72
2024/04/10 12:11:40;;;;;;;;;;;;;;;18.75;46.20;100909.09;11253618;25;1911;-71
2024/04/10 12:16:36;;;;;;;;;;;;;;;18.75;46.25;100918.78;11252946;26;1066;-72
2024/04/10 12:21:32;;;;;;;;;;;;;;;18.73;46.45;100921.47;11253481;26;817;-71
2024/04/10 12:26:33;;;;;;;;;;;;;;;18.74;46.37;100935.53;11252660;26;939;-72
2024/04/10 12:31:28;;;;;;;;;;;;;;;18.73;46.44;100932.03;11252042;26;1834;-71
2024/04/10 12:41:40;;;;;;;;;;;;;;;18.73;46.45;100932.03;11252415;26;598;-71
2024/04/10 12:46:36;;;;;;;;;;;;;;;18.75;46.47;100939.91;11251860;26;921;-71
2024/04/10 12:51:32;;;;;;;;;;;;;;;18.75;46.61;100939.91;11250616;25;1822;-71
2024/04/10 12:56:28;;;;;;;;;;;;;;;18.74;46.55;100946.94;11251391;25;888;-78
2024/04/10 13:01:24;;;;;;;;;;;;;;;18.74;46.70;100949.59;11250464;26;915;-71
2024/04/10 13:06:28;;;;;;;;;;;;;;;18.75;46.78;100955.75;11251045;25;927;-70
2024/04/10 13:11:24;;;;;;;;;;;;;;;18.76;46.67;100960.16;11250763;26;1825;-71
2024/04/10 13:16:20;;;;;;;;;;;;;;;18.76;46.77;100952.25;11248518;25;850;-70
2024/04/10 13:21:16;;;;;;;;;;;;;;;18.77;46.67;100956.59;11250616;26;899;-71
2024/04/10 13:26:12;;;;;;;;;;;;;;;18.76;46.44;100966.31;11249814;25;999;-70
2024/04/10 13:31:11;;;;;;;;;;;;;;;18.76;46.80;100957.53;11249248;26;1833;-70
2024/04/10 13:36:07;;;;;;;;;;;;;;;18.75;46.73;100964.56;11249496;26;850;-71
2024/04/10 13:41:03;;;;;;;;;;;;;;;18.77;46.70;100975.09;11250001;26;820;-71
2024/04/10 13:45:59;;;;;;;;;;;;;;;18.76;46.59;100978.66;11249848;26;883;-70
2024/04/10 13:50:55;;;;;;;;;;;;;;;18.76;46.71;100974.22;11248958;26;1821;-70
2024/04/10 13:55:50;;;;;;;;;;;;;;;18.77;46.41;100983.00;11249482;26;893;-70
2024/04/10 14:00:46;;;;;;;;;;;;;;;18.78;46.48;100980.31;11249386;26;931;-70
2024/04/10 14:05:42;;;;;;;;;;;;;;;18.78;46.55;100980.31;11249195;26;1213;-72
2024/04/10 14:10:38;;;;;;;;;;;;;;;18.81;46.61;100982.00;11247121;26;1851;-70
2024/04/10 14:15:34;;;;;;;;;;;;;;;18.81;46.60;100980.25;11246375;26;875;-70
2024/04/10 14:20:30;;;;;;;;;;;;;;;18.83;46.62;100982.81;11247923;25;856;-71
2024/04/10 14:25:26;;;;;;;;;;;;;;;18.86;46.44;100979.22;11247410;25;969;-72
2024/04/10 14:30:22;;;;;;;;;;;;;;;18.96;46.68;100991.28;11247514;26;1829;-71
2024/04/10 14:35:18;;;;;;;;;;;;;;;19.08;46.19;100979.50;11248134;26;895;-70
2024/04/10 14:40:14;;;;;;;;;;;;;;;19.09;46.39;100975.94;11247998;26;871;-71
2024/04/10 14:45:16;;;;;;;;;;;;;;;19.03;46.46;100985.78;11247756;26;893;-75
2024/04/10 14:50:13;;;;;;;;;;;;;;;19.00;46.49;100983.22;11247400;26;1821;-71
2024/04/10 14:55:09;;;;;;;;;;;;;;;18.98;46.51;100986.81;11247367;25;872;-70
2024/04/10 15:00:05;;;;;;;;;;;;;;;18.96;46.73;100981.56;11247214;25;825;-71
2024/04/10 15:05:01;;;;;;;;;;;;;;;18.98;46.63;100978.91;11244767;25;1214;-70
2024/04/10 15:09:57;;;;;;;;;;;;;;;19.01;46.37;100990.22;11182439;25;1860;-70
2024/04/10 15:14:53;;;;;;;;;;;;;;;19.02;46.54;100989.34;11170632;26;911;-71
2024/04/10 15:19:49;;;;;;;;;;;;;;;19.16;46.20;100973.06;11170112;26;956;-71
2024/04/10 15:24:44;;;;;;;;;;;;;;;19.40;45.75;100982.03;11170722;26;824;-71
2024/04/10 15:29:40;;;;;;;;;;;;;;;19.47;45.74;100975.66;11170945;26;1853;-71
2024/04/10 15:34:36;;;;;;;;;;;;;;;19.40;45.93;100971.47;11171056;26;724;-70
2024/04/10 15:39:34;;;;;;;;;;;;;;;19.42;46.05;100972.28;11174304;26;869;-71
2024/04/10 15:44:30;;;;;;;;;;;;;;;19.32;46.08;100980.56;11178396;26;880;-69
2024/04/10 15:49:27;;;;;;;;;;;;;;;19.25;46.22;100979.84;11178885;26;958;-71
2024/04/10 15:54:23;;;;;;;;;;;;;;;19.23;46.29;100976.38;11177915;26;1922;-70
2024/04/10 15:59:19;;;;;;;;;;;;;;;19.19;46.30;100972.13;11177924;26;927;-70
2024/04/10 16:04:17;;;;;;;;;;;;;;;19.17;46.58;100980.09;11177624;26;791;-71
2024/04/10 16:09:13;;;;;;;;;;;;;;;19.17;46.48;100976.56;11177571;26;872;-71
2024/04/10 16:14:09;;;;;;;;;;;;;;;19.15;46.40;100981.03;11177272;26;1821;-71
2024/04/10 16:19:05;;;;;;;;;;;;;;;19.14;46.42;100971.38;11178052;26;893;-71
2024/04/10 16:24:01;;;;;;;;;;;;;;;19.12;46.52;100971.41;11177200;26;930;-70
2024/04/10 16:28:57;;;;;;;;;;;;;;;19.11;46.11;100974.13;11177079;26;1158;-70
2024/04/10 16:33:53;;;;;;;;;;;;;;;19.10;46.38;100972.38;11176022;26;1848;-73
2024/04/10 16:38:49;;;;;;;;;;;;;;;19.09;46.36;100968.00;11176103;26;901;-71
2024/04/10 16:43:46;;;;;;;;;;;;;;;19.08;46.34;100961.00;11175964;26;878;-73
2024/04/10 16:48:42;;;;;;;;;;;;;;;19.07;46.46;100960.13;11175672;26;875;-71
2024/04/10 16:53:38;;;;;;;;;;;;;;;19.05;46.39;100967.25;11176296;26;1854;-71
2024/04/10 16:58:33;;;;;;;;;;;;;;;19.04;46.57;100976.94;11175642;26;1298;-71
2024/04/10 17:03:29;;;;;;;;;;;;;;;19.03;46.39;100983.13;11175463;26;832;-72
2024/04/10 17:08:25;;;;;;;;;;;;;;;19.03;46.53;100992.84;11176082;26;878;-71
2024/04/10 17:13:21;;;;;;;;;;;;;;;19.02;46.33;100989.34;11175060;26;1826;-71
2024/04/10 17:23:31;;;;;;;;;;;;;;;19.00;46.56;100993.78;11175826;26;649;-71
2024/04/10 17:28:27;;;;;;;;;;;;;;;19.01;46.43;100995.53;11175424;26;818;-71
2024/04/10 17:33:23;;;;;;;;;;;;;;;19.01;46.22;100997.31;11175512;26;1826;-71
2024/04/10 17:38:19;;;;;;;;;;;;;;;18.99;46.43;101002.66;11175130;26;882;-71
2024/04/10 17:43:15;;;;;;;;;;;;;;;19.00;46.59;101003.50;11174956;26;934;-71
2024/04/10 17:48:11;;;;;;;;;;;;;;;18.99;46.33;101015.88;11175771;26;836;-71
2024/04/10 17:53:07;;;;;;;;;;;;;;;18.99;46.47;101012.31;11174507;26;1822;-71
2024/04/10 17:58:03;;;;;;;;;;;;;;;18.97;46.39;101017.66;11175173;26;930;-72
2024/04/10 18:02:59;;;;;;;;;;;;;;;18.97;46.54;101030.03;11174088;26;852;-71
2024/04/10 18:07:54;;;;;;;;;;;;;;;18.97;46.39;101041.44;11174781;26;840;-71
2024/04/10 18:12:50;;;;;;;;;;;;;;;18.97;46.52;101041.44;11173791;26;1843;-71
2024/04/10 18:17:46;;;;;;;;;;;;;;;18.96;46.45;101046.75;11174510;26;926;-71
2024/04/10 18:22:42;;;;;;;;;;;;;;;18.96;46.64;101054.69;11173619;26;969;-71
2024/04/10 18:27:38;;;;;;;;;;;;;;;18.96;46.37;101065.25;11173484;26;874;-71
2024/04/10 18:32:35;;;;;;;;;;;;;;;18.96;46.53;101059.97;11173593;26;1834;-71
2024/04/10 18:37:31;;;;;;;;;;;;;;;18.95;46.69;101068.81;11173135;26;827;-71
2024/04/10 18:42:27;;;;;;;;;;;;;;;18.94;46.38;101073.25;11172924;26;887;-71
2024/04/10 18:47:23;;;;;;;;;;;;;;;18.95;46.45;101080.25;11172811;26;897;-72
2024/04/10 18:52:19;;;;;;;;;;;;;;;18.95;46.63;101092.59;11172726;26;1834;-71
2024/04/10 18:57:15;;;;;;;;;;;;;;;18.94;46.35;101090.84;11173260;26;815;-71
2024/04/10 19:02:11;;;;;;;;;;;;;;;18.93;46.54;101081.19;11172172;26;890;-71
2024/04/10 19:07:07;;;;;;;;;;;;;;;18.94;46.69;101083.81;11171997;26;889;-71
2024/04/10 19:12:03;;;;;;;;;;;;;;;18.94;46.66;101089.09;11171803;26;1841;-71
2024/04/10 19:16:59;;;;;;;;;;;;;;;18.93;46.40;101092.63;11179588;26;810;-71
2024/04/10 19:21:55;;;;;;;;;;;;;;;18.94;46.55;101094.38;11179107;26;956;-71
2024/04/10 19:26:50;;;;;;;;;;;;;;;18.94;46.61;101090.84;11179020;26;827;-72
2024/04/10 19:31:46;;;;;;;;;;;;;;;18.94;46.69;101081.19;11178150;26;1885;-72
2024/04/10 19:36:43;;;;;;;;;;;;;;;18.94;46.63;101077.63;11178105;26;843;-72
2024/04/10 19:41:39;;;;;;;;;;;;;;;18.93;46.83;101081.19;11177871;26;916;-72
2024/04/10 19:46:35;;;;;;;;;;;;;;;18.92;46.63;101072.41;11178473;26;826;-72
2024/04/10 19:51:31;;;;;;;;;;;;;;;18.92;46.77;101066.28;11177482;26;1822;-72
2024/04/10 19:56:28;;;;;;;;;;;;;;;18.91;46.68;101081.22;11177436;26;888;-72
2024/04/10 20:01:23;;;;;;;;;;;;;;;18.90;46.85;101068.94;11177893;26;889;-72
2024/04/10 20:06:19;;;;;;;;;;;;;;;18.90;46.74;101063.66;11177729;26;981;-72
2024/04/10 20:11:15;;;;;;;;;;;;;;;18.89;46.62;101061.94;11178041;26;1907;-72
2024/04/10 20:16:11;;;;;;;;;;;;;;;18.87;46.74;101055.81;11177369;26;852;-71
2024/04/10 20:21:07;;;;;;;;;;;;;;;18.86;46.91;101053.22;11177463;26;802;-71
2024/04/10 20:26:03;;;;;;;;;;;;;;;18.86;46.47;101063.78;11176518;26;965;-71
2024/04/10 20:30:59;;;;;;;;;;;;;;;18.86;46.81;101074.34;11176747;26;1856;-70
2024/04/10 20:35:55;;;;;;;;;;;;;;;18.85;46.62;101081.41;11177429;26;832;-71
2024/04/10 20:40:51;;;;;;;;;;;;;;;18.85;46.56;101099.03;11177963;26;817;-71
2024/04/10 20:45:47;;;;;;;;;;;;;;;18.83;46.67;101099.06;11177876;26;840;-71
2024/04/10 20:50:43;;;;;;;;;;;;;;;18.82;46.66;101097.34;11176989;26;1825;-70
2024/04/10 20:55:38;;;;;;;;;;;;;;;18.82;46.55;101099.97;11176959;26;1002;-71
2024/04/10 21:00:34;;;;;;;;;;;;;;;18.80;46.54;101102.66;11177338;26;963;-70
2024/04/10 22:13:25;;;;;;;;;;;;;;;18.56;46.51;101087.41;11174001;26;1767;-70
2024/04/10 22:28:51;;;;;;;;;;;;;;;18.50;46.48;101106.91;11174129;26;673;-71
2024/04/10 22:33:47;;;;;;;;;;;;;;;18.48;46.70;101108.72;11173797;26;1851;-70
2024/04/10 22:38:43;;;;;;;;;;;;;;;18.46;46.52;101107.88;11173630;26;924;-71
2024/04/10 22:43:42;;;;;;;;;;;;;;;18.45;46.35;101118.50;11174210;26;874;-70
2024/04/10 22:48:38;;;;;;;;;;;;;;;18.44;46.16;101114.97;11177427;26;1662;-71
2024/04/10 22:53:34;;;;;;;;;;;;;;;18.43;46.72;101112.38;11180392;26;1853;-70
2024/04/10 22:58:30;;;;;;;;;;;;;;;18.39;46.69;101104.53;11181065;26;817;-70
2024/04/10 23:03:26;;;;;;;;;;;;;;;18.39;46.89;101101.91;11180057;26;819;-70
2024/04/10 23:08:22;;;;;;;;;;;;;;;18.38;46.34;101099.28;11179962;26;977;-70
2024/04/10 23:13:18;;;;;;;;;;;;;;;18.36;46.49;101096.66;11180509;26;1829;-70
2024/04/10 23:18:14;;;;;;;;;;;;;;;18.34;46.83;101085.31;11180410;26;1033;-71
2024/04/10 23:23:09;;;;;;;;;;;;;;;18.31;46.67;101080.09;11179602;26;911;-70
2024/04/10 23:28:05;;;;;;;;;;;;;;;18.32;46.44;101083.59;11179479;26;942;-70
2024/04/10 23:33:01;;;;;;;;;;;;;;;18.31;46.77;101073.94;11179246;26;1841;-70
2024/04/10 23:37:57;;;;;;;;;;;;;;;18.28;46.67;101066.09;11179913;26;826;-71
2024/04/10 23:42:53;;;;;;;;;;;;;;;18.26;47.01;101058.22;11179053;26;886;-71
2024/04/10 23:47:49;;;;;;;;;;;;;;;18.24;46.69;101054.75;11178864;26;1052;-71
2024/04/10 23:52:45;;;;;;;;;;;;;;;18.23;46.69;101050.38;11178664;26;1837;-70
2024/04/10 23:57:40;;;;;;;;;;;;;;;18.21;46.62;101054.84;11179303;26;817;-71
